Time;durP1;ratioP1;P1;durP2;ratioP2;P2;SDS_P1;SDS_P2;PMS_P1;PMS_P2;Temp;Humidity;BMP_temperature;BMP_pressure;BME280_temperature;BME280_humidity;BME280_pressure;Samples;Min_cycle;Max_cycle;Signal;HPM_P1;HPM_P2
2022/05/10 00:00:04;;;;;;;7.00;6.28;;;16.20;63.80;;;;;;4970625;28;20132;-82
2022/05/10 00:02:31;;;;;;;7.72;6.95;;;16.20;64.20;;;;;;4983259;28;20037;-81
2022/05/10 00:04:56;;;;;;;12.50;10.20;;;16.20;63.60;;;;;;4972693;28;20053;-82
2022/05/10 00:07:23;;;;;;;6.70;6.03;;;16.10;64.20;;;;;;4970253;28;20783;-81
2022/05/10 00:09:49;;;;;;;10.68;9.57;;;16.10;64.70;;;;;;4951995;28;20030;-81
2022/05/10 00:12:15;;;;;;;9.60;8.75;;;16.20;64.40;;;;;;4953418;28;20084;-81
2022/05/10 00:14:41;;;;;;;8.43;7.60;;;16.10;64.50;;;;;;4950756;28;20106;-81
2022/05/10 00:17:06;;;;;;;8.27;6.88;;;16.10;65.70;;;;;;4966634;28;20061;-81
2022/05/10 00:19:32;;;;;;;8.95;7.78;;;16.10;65.60;;;;;;4955013;28;20092;-81
2022/05/10 00:21:58;;;;;;;11.88;10.40;;;16.00;64.70;;;;;;4983627;28;20037;-82
2022/05/10 00:24:23;;;;;;;8.93;8.02;;;15.90;65.00;;;;;;4970202;28;20040;-81
2022/05/10 00:26:49;;;;;;;8.77;7.50;;;15.90;65.60;;;;;;4966407;28;20108;-81
2022/05/10 00:29:15;;;;;;;11.30;10.20;;;15.80;65.70;;;;;;4968256;28;20040;-81
2022/05/10 00:31:41;;;;;;;13.07;11.25;;;15.80;65.40;;;;;;4966644;28;20080;-81
2022/05/10 00:34:06;;;;;;;12.90;11.45;;;15.70;65.30;;;;;;4969170;28;20038;-81
2022/05/10 00:36:32;;;;;;;8.60;7.80;;;15.60;65.80;;;;;;4954738;28;20044;-81
2022/05/10 00:38:57;;;;;;;10.63;9.38;;;15.60;65.90;;;;;;4953767;28;20109;-81
2022/05/10 00:41:36;;;;;;;7.93;6.88;;;15.60;66.20;;;;;;4954441;28;20096;-81
2022/05/10 00:44:39;;;;;;;10.10;8.38;;;15.80;66.70;;;;;;4954857;28;20026;-80
2022/05/10 00:47:25;;;;;;;10.82;9.18;;;15.70;66.30;;;;;;4927821;29;20600;-80
2022/05/10 00:50:07;;;;;;;7.38;6.68;;;15.70;66.50;;;;;;4963667;28;20208;-81
2022/05/10 00:53:03;;;;;;;13.80;10.40;;;15.60;67.00;;;;;;4984982;28;20606;-81
2022/05/10 00:55:50;;;;;;;12.48;9.98;;;15.60;67.10;;;;;;4969279;28;20034;-81
2022/05/10 00:58:41;;;;;;;12.65;9.52;;;15.60;67.00;;;;;;4987486;28;20091;-81
2022/05/10 01:01:06;;;;;;;11.40;10.15;;;15.50;67.60;;;;;;4968626;28;20534;-81
2022/05/10 01:03:35;;;;;;;9.75;8.80;;;15.50;67.30;;;;;;4984922;28;20104;-81
2022/05/10 01:06:10;;;;;;;10.45;9.45;;;15.50;67.40;;;;;;4972016;28;20029;-81
2022/05/10 01:08:47;;;;;;;13.77;9.68;;;15.40;67.10;;;;;;4969246;28;20038;-81
2022/05/10 01:11:28;;;;;;;9.27;7.68;;;15.40;67.40;;;;;;4989601;28;20037;-81
2022/05/10 01:14:29;;;;;;;9.43;7.95;;;15.40;67.30;;;;;;4974814;28;20546;-81
2022/05/10 01:16:56;;;;;;;7.85;7.07;;;15.50;67.20;;;;;;4965300;28;20486;-80
2022/05/10 01:19:22;;;;;;;9.60;8.60;;;15.60;68.00;;;;;;4988796;28;20100;-80
2022/05/10 01:21:56;;;;;;;9.95;8.43;;;15.50;71.40;;;;;;4953832;28;20061;-80
2022/05/10 01:24:40;;;;;;;9.05;8.15;;;15.30;71.40;;;;;;4990168;28;20042;-80
2022/05/10 01:27:31;;;;;;;7.18;6.35;;;15.30;73.40;;;;;;4990615;28;20033;-80
2022/05/10 01:30:05;;;;;;;6.60;5.82;;;15.40;71.20;;;;;;4985832;28;20041;-80
2022/05/10 01:35:28;;;;;;;6.38;5.78;;;15.40;72.00;;;;;;4987007;28;20112;-80
2022/05/10 01:37:57;;;;;;;6.82;6.22;;;15.30;70.40;;;;;;4972547;28;20038;-80
2022/05/10 01:40:38;;;;;;;6.88;4.95;;;15.40;71.50;;;;;;4984228;28;20084;-80
2022/05/10 01:43:06;;;;;;;10.52;7.70;;;15.60;70.20;;;;;;4990663;28;20034;-80
2022/05/10 01:45:36;;;;;;;9.23;7.07;;;15.60;70.10;;;;;;4997505;28;20041;-80
2022/05/10 01:48:03;;;;;;;8.35;7.47;;;15.50;71.30;;;;;;4988373;28;20152;-80
2022/05/10 01:50:54;;;;;;;8.00;7.18;;;15.40;72.60;;;;;;4983481;28;20060;-80
2022/05/10 01:53:40;;;;;;;6.63;5.97;;;15.30;73.30;;;;;;4972061;28;20489;-80
2022/05/10 01:56:12;;;;;;;12.07;8.07;;;15.20;72.80;;;;;;4989205;28;20074;-80
2022/05/10 01:58:39;;;;;;;7.95;7.15;;;15.20;74.20;;;;;;4969132;28;20038;-80
2022/05/10 02:01:06;;;;;;;11.75;8.52;;;15.00;73.80;;;;;;4990395;28;20107;-80
2022/05/10 02:03:50;;;;;;;9.90;8.27;;;15.00;78.80;;;;;;4989540;28;20120;-80
2022/05/10 02:06:39;;;;;;;12.30;8.90;;;15.00;78.80;;;;;;4972012;28;20142;-80
2022/05/10 02:09:28;;;;;;;11.05;8.27;;;15.00;74.00;;;;;;4975593;28;20540;-80
2022/05/10 02:12:13;;;;;;;8.23;7.53;;;15.00;75.20;;;;;;4988827;28;20085;-80
2022/05/10 02:14:50;;;;;;;8.07;7.28;;;15.00;78.30;;;;;;4989277;28;20041;-81
2022/05/10 02:17:27;;;;;;;10.57;9.40;;;14.90;81.40;;;;;;4986918;28;20459;-80
2022/05/10 02:20:17;;;;;;;11.05;8.23;;;14.80;87.60;;;;;;4966133;28;20177;-80
2022/05/10 02:23:01;;;;;;;9.45;8.27;;;14.70;84.30;;;;;;4983359;28;20044;-80
2022/05/10 02:25:41;;;;;;;9.48;8.50;;;14.60;93.00;;;;;;4975789;28;20029;-80
2022/05/10 02:28:21;;;;;;;9.70;8.70;;;14.70;92.70;;;;;;4974247;28;20517;-80
2022/05/10 02:30:47;;;;;;;11.50;9.07;;;14.60;92.30;;;;;;4987505;28;20125;-80
2022/05/10 02:33:13;;;;;;;9.55;8.60;;;14.60;92.30;;;;;;4991128;28;20038;-80
2022/05/10 02:35:51;;;;;;;11.10;8.93;;;14.70;92.00;;;;;;4986074;28;20033;-80
2022/05/10 02:38:21;;;;;;;12.95;9.98;;;14.70;90.50;;;;;;4970914;28;20036;-80
2022/05/10 02:40:47;;;;;;;10.05;8.57;;;14.70;95.90;;;;;;4986853;28;20121;-80
2022/05/10 02:43:16;;;;;;;11.40;8.13;;;14.70;92.30;;;;;;4985570;28;20129;-81
2022/05/10 02:45:42;;;;;;;7.53;6.93;;;14.70;91.20;;;;;;4969845;28;20088;-80
2022/05/10 02:48:34;;;;;;;6.95;6.25;;;14.80;91.60;;;;;;4983328;28;20037;-80
2022/05/10 02:51:00;;;;;;;8.95;8.15;;;14.80;94.10;;;;;;4967916;28;20039;-80
2022/05/10 02:53:26;;;;;;;9.00;7.32;;;14.90;93.00;;;;;;4984614;28;20038;-80
2022/05/10 02:55:53;;;;;;;6.55;5.90;;;14.90;94.30;;;;;;4973442;28;20035;-79
2022/05/10 02:58:28;;;;;;;7.03;5.20;;;15.00;92.30;;;;;;4973332;28;20422;-79
2022/05/10 03:01:00;;;;;;;9.10;5.30;;;15.20;92.40;;;;;;4987441;28;20188;-79
2022/05/10 03:03:26;;;;;;;8.18;6.97;;;15.10;93.20;;;;;;4973185;28;20117;-79
2022/05/10 03:05:53;;;;;;;5.25;4.85;;;15.00;94.50;;;;;;4956030;28;20127;-79
2022/05/10 03:08:18;;;;;;;5.40;4.90;;;15.00;93.50;;;;;;4974020;28;20393;-79
2022/05/10 03:10:44;;;;;;;7.47;6.65;;;15.00;93.50;;;;;;4988686;28;20026;-79
2022/05/10 03:13:09;;;;;;;7.40;6.55;;;15.10;93.60;;;;;;4971368;28;20036;-79
2022/05/10 03:15:35;;;;;;;6.20;5.60;;;14.90;93.10;;;;;;4987689;28;20037;-79
2022/05/10 03:18:00;;;;;;;6.95;6.32;;;14.90;92.80;;;;;;4990142;28;20037;-79
2022/05/10 03:20:26;;;;;;;8.90;7.95;;;15.00;93.20;;;;;;4986171;28;20072;-79
2022/05/10 03:22:51;;;;;;;9.57;7.78;;;14.70;95.70;;;;;;4953289;28;20096;-79
2022/05/10 03:25:17;;;;;;;8.82;7.22;;;14.70;92.60;;;;;;4987847;28;20034;-79
2022/05/10 03:27:42;;;;;;;7.60;5.57;;;14.80;93.70;;;;;;4987597;28;20121;-79
2022/05/10 03:30:08;;;;;;;7.18;6.47;;;14.90;93.40;;;;;;4956788;28;20030;-79
2022/05/10 03:32:34;;;;;;;10.52;6.72;;;14.80;94.70;;;;;;4987841;28;20462;-79
2022/05/10 03:35:00;;;;;;;9.20;7.00;;;14.70;97.40;;;;;;4984467;28;20042;-79
2022/05/10 03:37:28;;;;;;;8.75;5.25;;;14.70;95.10;;;;;;4988758;28;20033;-79
2022/05/10 03:39:54;;;;;;;7.63;5.68;;;14.80;95.00;;;;;;4974914;28;20061;-79
2022/05/10 03:42:19;;;;;;;7.55;5.78;;;14.90;94.50;;;;;;4969928;28;20548;-79
2022/05/10 03:44:49;;;;;;;8.52;6.45;;;15.00;94.00;;;;;;4970992;28;20029;-78
2022/05/10 03:47:14;;;;;;;5.93;5.35;;;14.90;95.20;;;;;;4985736;28;20033;-79
2022/05/10 03:49:40;;;;;;;9.77;6.43;;;14.90;95.30;;;;;;4955373;28;20034;-79
2022/05/10 03:52:06;;;;;;;6.00;5.45;;;15.00;96.90;;;;;;4971923;28;20045;-79
2022/05/10 03:54:31;;;;;;;7.30;6.40;;;14.90;94.90;;;;;;4983905;28;20034;-79
2022/05/10 03:56:59;;;;;;;6.85;5.78;;;14.90;96.00;;;;;;4985317;28;20371;-79
2022/05/10 03:59:25;;;;;;;7.53;5.50;;;14.70;97.40;;;;;;4982793;28;20038;-79
2022/05/10 04:01:50;;;;;;;9.68;5.65;;;14.90;95.30;;;;;;4985399;28;20052;-79
2022/05/10 04:04:16;;;;;;;5.20;4.80;;;14.90;94.80;;;;;;4967684;28;20041;-79
2022/05/10 04:06:41;;;;;;;14.13;6.38;;;14.90;95.30;;;;;;4955579;28;20030;-79
2022/05/10 04:09:07;;;;;;;8.02;5.22;;;14.90;96.60;;;;;;4985809;28;20424;-79
2022/05/10 04:11:34;;;;;;;6.18;5.57;;;14.90;96.20;;;;;;4970207;28;20026;-79
2022/05/10 04:13:59;;;;;;;7.10;6.40;;;15.00;96.20;;;;;;4971277;28;20056;-79
2022/05/10 04:16:26;;;;;;;8.63;6.13;;;14.90;96.70;;;;;;4981270;28;20030;-79
2022/05/10 04:18:51;;;;;;;8.15;5.93;;;14.90;97.40;;;;;;4972038;28;20039;-79
2022/05/10 04:21:17;;;;;;;8.30;6.65;;;14.90;97.80;;;;;;4985916;28;20053;-79
2022/05/10 04:23:43;;;;;;;7.75;6.35;;;15.00;97.80;;;;;;4985321;28;20108;-79
2022/05/10 04:26:10;;;;;;;6.28;5.68;;;14.80;96.60;;;;;;4983808;28;20058;-79
2022/05/10 04:28:36;;;;;;;8.93;6.47;;;14.80;97.30;;;;;;4952947;28;20172;-79
2022/05/10 04:31:02;;;;;;;5.85;5.20;;;14.90;98.50;;;;;;4983838;28;20116;-79
2022/05/10 04:33:27;;;;;;;5.68;5.10;;;15.10;96.40;;;;;;4987230;28;20038;-79
2022/05/10 04:35:53;;;;;;;8.73;6.03;;;15.10;95.80;;;;;;4989029;28;20030;-79
2022/05/10 04:38:18;;;;;;;13.68;6.30;;;15.00;97.30;;;;;;4969463;28;20023;-79
2022/05/10 04:43:28;;;;;;;5.38;4.88;;;14.90;97.80;;;;;;4989249;28;20492;-79
2022/05/10 04:45:54;;;;;;;5.85;5.22;;;15.00;97.00;;;;;;4988787;28;20033;-79
2022/05/10 04:48:19;;;;;;;7.35;5.75;;;15.00;98.20;;;;;;4973422;28;20038;-79
2022/05/10 04:50:45;;;;;;;6.93;5.70;;;15.00;98.70;;;;;;4990808;28;20034;-79
2022/05/10 04:53:10;;;;;;;7.20;6.50;;;15.00;97.40;;;;;;4991577;28;20097;-79
2022/05/10 04:55:36;;;;;;;9.25;7.15;;;15.00;98.20;;;;;;4970584;28;20038;-79
2022/05/10 04:58:02;;;;;;;9.00;6.68;;;15.10;98.30;;;;;;4974967;28;20049;-79
2022/05/10 05:00:29;;;;;;;9.40;6.50;;;15.10;97.10;;;;;;4991749;28;20084;-79
2022/05/10 05:02:55;;;;;;;8.30;6.35;;;15.20;97.10;;;;;;4971879;28;20030;-79
2022/05/10 05:05:21;;;;;;;7.57;6.57;;;15.20;97.70;;;;;;4987410;28;20161;-79
2022/05/10 05:07:47;;;;;;;7.57;4.70;;;15.20;98.90;;;;;;4972296;28;20034;-78
2022/05/10 05:10:13;;;;;;;7.63;6.28;;;15.30;96.40;;;;;;4971020;28;20025;-78
2022/05/10 05:12:38;;;;;;;14.40;6.60;;;15.30;98.00;;;;;;4972063;28;20395;-78
2022/05/10 05:15:06;;;;;;;7.90;5.43;;;15.20;98.60;;;;;;4984031;28;20029;-79
2022/05/10 05:17:32;;;;;;;5.25;4.70;;;15.20;98.10;;;;;;4967700;28;20061;-78
2022/05/10 05:19:57;;;;;;;12.63;6.85;;;15.30;96.50;;;;;;4990573;28;20029;-78
2022/05/10 05:22:23;;;;;;;7.28;6.55;;;15.30;96.60;;;;;;4987768;28;20038;-78
2022/05/10 05:24:48;;;;;;;9.13;6.78;;;15.40;98.90;;;;;;4989175;28;20041;-79
2022/05/10 05:27:14;;;;;;;7.40;6.40;;;15.40;97.50;;;;;;4972217;28;20030;-79
2022/05/10 05:29:39;;;;;;;6.38;5.75;;;15.40;98.90;;;;;;4959131;28;20051;-79
2022/05/10 05:32:07;;;;;;;6.88;6.20;;;15.60;96.40;;;;;;4973519;28;20041;-79
2022/05/10 05:34:35;;;;;;;9.60;7.80;;;15.70;96.40;;;;;;4957703;28;20116;-79
2022/05/10 05:39:44;;;;;;;8.48;6.65;;;15.70;95.40;;;;;;4991255;28;20546;-79
2022/05/10 05:42:10;;;;;;;7.55;6.85;;;15.80;96.00;;;;;;4988291;28;20042;-79
2022/05/10 05:44:35;;;;;;;10.10;6.78;;;15.80;96.80;;;;;;4989769;28;20410;-79
2022/05/10 05:47:01;;;;;;;11.52;8.00;;;15.80;97.20;;;;;;4987800;28;20541;-79
2022/05/10 05:49:26;;;;;;;8.38;6.82;;;15.80;97.00;;;;;;4987265;28;20088;-79
2022/05/10 05:51:56;;;;;;;8.43;6.43;;;15.90;97.30;;;;;;4972412;28;20505;-79
2022/05/10 05:54:22;;;;;;;6.95;5.13;;;15.90;96.70;;;;;;4982920;28;20386;-79
2022/05/10 05:56:47;;;;;;;6.22;5.63;;;16.00;94.80;;;;;;4955803;28;20038;-79
2022/05/10 05:59:13;;;;;;;10.77;6.80;;;16.10;95.70;;;;;;4955299;28;20034;-79
2022/05/10 06:01:38;;;;;;;8.00;7.03;;;16.20;96.40;;;;;;4987940;28;20526;-79
2022/05/10 06:04:04;;;;;;;7.80;6.82;;;16.30;95.20;;;;;;4987373;28;20398;-79
2022/05/10 06:06:29;;;;;;;8.52;5.68;;;16.40;97.90;;;;;;4968470;28;20035;-79
2022/05/10 06:08:56;;;;;;;7.03;6.28;;;16.50;95.00;;;;;;4969481;28;20034;-79
2022/05/10 06:11:21;;;;;;;7.15;6.25;;;16.70;95.50;;;;;;4972995;28;20037;-79
2022/05/10 06:13:47;;;;;;;8.77;6.88;;;16.90;95.20;;;;;;4988649;28;20029;-79
2022/05/10 06:16:13;;;;;;;9.98;7.38;;;17.10;95.50;;;;;;4967567;28;20497;-78
2022/05/10 06:18:38;;;;;;;8.43;6.40;;;17.30;94.80;;;;;;4986283;28;20075;-79
2022/05/10 06:21:04;;;;;;;5.63;4.65;;;17.50;94.60;;;;;;4957958;28;20039;-79
2022/05/10 06:23:30;;;;;;;6.80;5.85;;;17.70;94.20;;;;;;4954961;28;20061;-79
2022/05/10 06:25:55;;;;;;;7.35;5.93;;;17.80;93.30;;;;;;4988345;28;20061;-79
2022/05/10 06:28:22;;;;;;;6.70;6.00;;;18.00;93.30;;;;;;4968138;28;20023;-79
2022/05/10 06:30:47;;;;;;;11.77;7.50;;;18.10;93.00;;;;;;4988695;28;20037;-79
2022/05/10 06:33:13;;;;;;;10.27;6.88;;;18.20;92.40;;;;;;4968592;28;20026;-79
2022/05/10 06:35:40;;;;;;;6.45;5.78;;;18.30;91.40;;;;;;4956494;28;20034;-79
2022/05/10 06:38:27;;;;;;;5.68;4.43;;;18.40;92.10;;;;;;4971710;28;20026;-79
2022/05/10 06:40:53;;;;;;;7.10;5.38;;;18.40;90.90;;;;;;4975041;28;20029;-79
2022/05/10 06:43:19;;;;;;;9.90;6.10;;;18.60;91.70;;;;;;4971031;28;20383;-79
2022/05/10 06:45:44;;;;;;;9.82;7.22;;;18.60;92.00;;;;;;4985799;28;20041;-79
2022/05/10 06:48:10;;;;;;;6.85;5.88;;;18.70;91.70;;;;;;4970351;28;20038;-79
2022/05/10 06:50:36;;;;;;;6.80;5.82;;;18.90;91.50;;;;;;4969930;28;20489;-79
2022/05/10 06:53:01;;;;;;;8.95;6.30;;;18.90;90.50;;;;;;4988274;28;20075;-79
2022/05/10 06:55:28;;;;;;;7.53;6.43;;;19.00;90.60;;;;;;4954560;28;20031;-80
2022/05/10 06:57:53;;;;;;;8.65;6.43;;;19.10;90.40;;;;;;4971730;28;20686;-79
2022/05/10 07:00:20;;;;;;;6.97;5.13;;;19.30;90.00;;;;;;4953206;28;20109;-80
2022/05/10 07:02:47;;;;;;;11.85;4.75;;;19.50;90.10;;;;;;4970333;28;20497;-80
2022/05/10 07:05:13;;;;;;;5.75;5.20;;;19.60;88.80;;;;;;4952439;28;20027;-80
2022/05/10 07:07:39;;;;;;;6.00;4.95;;;19.70;88.30;;;;;;4968824;28;20068;-80
2022/05/10 07:10:08;;;;;;;6.50;5.00;;;19.90;88.10;;;;;;4984975;28;20038;-80
2022/05/10 07:12:35;;;;;;;5.95;4.93;;;20.10;88.30;;;;;;4965185;28;20096;-80
2022/05/10 07:15:00;;;;;;;8.65;4.65;;;20.20;89.20;;;;;;4970523;28;20030;-80
2022/05/10 07:17:26;;;;;;;5.93;4.55;;;20.40;88.10;;;;;;4972194;28;20454;-80
2022/05/10 07:19:51;;;;;;;5.65;4.40;;;20.70;88.20;;;;;;4956216;28;20058;-80
2022/05/10 07:22:17;;;;;;;8.18;5.07;;;20.80;86.80;;;;;;4988722;28;20506;-80
2022/05/10 07:24:42;;;;;;;5.60;4.72;;;21.00;88.30;;;;;;4971580;28;20030;-80
2022/05/10 07:27:08;;;;;;;7.18;5.60;;;21.20;87.40;;;;;;4986234;28;20419;-80
2022/05/10 07:29:33;;;;;;;5.32;4.88;;;21.40;86.60;;;;;;4967149;28;20042;-80
2022/05/10 07:31:59;;;;;;;6.60;5.28;;;21.70;85.80;;;;;;4970379;28;20124;-80
2022/05/10 07:34:25;;;;;;;8.98;5.15;;;21.90;85.50;;;;;;4984800;28;20144;-80
2022/05/10 07:36:50;;;;;;;6.43;5.78;;;22.20;86.30;;;;;;4971191;28;20026;-80
2022/05/10 07:39:16;;;;;;;9.10;5.28;;;22.40;84.50;;;;;;4985167;28;20053;-80
2022/05/10 07:41:42;;;;;;;5.47;4.78;;;22.60;83.40;;;;;;4953830;28;20537;-80
2022/05/10 07:44:08;;;;;;;5.93;4.10;;;23.00;83.70;;;;;;4982171;28;20033;-80
2022/05/10 07:46:33;;;;;;;5.05;4.45;;;23.40;82.40;;;;;;4972166;28;20033;-81
2022/05/10 07:48:59;;;;;;;8.45;4.75;;;23.50;80.40;;;;;;4970094;28;20516;-80
2022/05/10 07:51:24;;;;;;;5.80;4.60;;;23.80;78.90;;;;;;4955822;28;20034;-80
2022/05/10 07:53:51;;;;;;;8.25;4.68;;;23.90;78.50;;;;;;4988829;28;20033;-80
2022/05/10 07:56:16;;;;;;;8.57;4.68;;;24.00;77.80;;;;;;4986503;28;20085;-81
2022/05/10 07:58:42;;;;;;;4.65;3.97;;;24.30;78.50;;;;;;4988041;28;20120;-80
2022/05/10 08:01:07;;;;;;;5.55;3.83;;;24.50;77.60;;;;;;4985745;28;20034;-81
2022/05/10 08:03:33;;;;;;;9.63;4.70;;;24.40;75.60;;;;;;4970112;28;20049;-80
2022/05/10 08:05:59;;;;;;;5.97;4.57;;;24.70;76.10;;;;;;4974204;28;20656;-81
2022/05/10 08:08:25;;;;;;;5.93;4.22;;;24.90;75.50;;;;;;4983946;28;20313;-81
2022/05/10 08:10:51;;;;;;;5.18;3.75;;;25.10;74.70;;;;;;4973339;28;20809;-81
2022/05/10 08:13:20;;;;;;;5.07;4.30;;;25.30;75.70;;;;;;4968630;28;20114;-81
2022/05/10 08:15:45;;;;;;;3.85;3.53;;;25.70;74.10;;;;;;4971617;28;20040;-81
2022/05/10 08:18:11;;;;;;;6.55;4.32;;;26.00;72.60;;;;;;4985578;28;20481;-81
2022/05/10 08:20:37;;;;;;;4.57;4.15;;;26.30;79.20;;;;;;4971302;28;20022;-82
2022/05/10 08:23:04;;;;;;;9.75;4.28;;;26.50;76.50;;;;;;4972062;28;20038;-81
2022/05/10 08:25:29;;;;;;;7.43;3.85;;;26.60;78.60;;;;;;4970513;28;20034;-82
2022/05/10 08:27:57;;;;;;;4.15;3.47;;;26.90;74.10;;;;;;4974893;28;20034;-82
2022/05/10 08:30:23;;;;;;;6.10;3.78;;;27.00;68.90;;;;;;4976149;28;20092;-82
2022/05/10 08:32:48;;;;;;;4.90;3.83;;;27.10;67.20;;;;;;4978280;28;20041;-83
2022/05/10 08:35:14;;;;;;;7.70;3.85;;;27.20;67.80;;;;;;4974072;28;20052;-83
2022/05/10 08:37:39;;;;;;;6.05;4.03;;;27.40;64.40;;;;;;4988538;28;20034;-84
2022/05/10 08:40:06;;;;;;;7.20;3.65;;;27.50;64.90;;;;;;4971348;28;20097;-84
2022/05/10 08:42:35;;;;;;;5.22;3.78;;;27.70;63.90;;;;;;4967373;28;20105;-84
2022/05/10 08:45:05;;;;;;;4.40;3.13;;;27.80;62.20;;;;;;4986960;28;20033;-84
2022/05/10 08:47:31;;;;;;;5.43;3.00;;;27.80;60.50;;;;;;4957278;28;20041;-84
2022/05/10 08:50:00;;;;;;;3.67;3.30;;;27.80;59.90;;;;;;4963612;28;20033;-85
2022/05/10 08:52:30;;;;;;;4.13;3.28;;;28.00;60.00;;;;;;4949026;28;20042;-85
2022/05/10 08:54:56;;;;;;;3.88;3.13;;;28.10;59.60;;;;;;4957244;28;20334;-85
2022/05/10 08:57:47;;;;;;;3.65;3.33;;;28.50;59.50;;;;;;4962134;28;20464;-85
2022/05/10 09:00:25;;;;;;;4.38;3.00;;;28.70;58.50;;;;;;4973898;28;20482;-85
2022/05/10 09:02:52;;;;;;;3.20;2.90;;;28.70;58.70;;;;;;4982884;28;20048;-85
2022/05/10 09:05:30;;;;;;;3.90;3.40;;;28.90;59.30;;;;;;4964672;28;20046;-85
2022/05/10 09:08:13;;;;;;;3.25;2.92;;;28.90;56.70;;;;;;4948360;28;20405;-85
2022/05/10 09:10:51;;;;;;;6.55;4.10;;;28.90;57.30;;;;;;4983100;28;20546;-85
2022/05/10 09:13:18;;;;;;;4.38;3.50;;;29.00;57.10;;;;;;4950593;28;20061;-85
2022/05/10 09:15:49;;;;;;;4.50;4.10;;;29.00;56.50;;;;;;4985199;28;20049;-85
2022/05/10 09:18:27;;;;;;;3.85;3.47;;;29.10;56.10;;;;;;4977659;28;20031;-85
2022/05/10 09:20:59;;;;;;;6.95;3.58;;;29.00;55.50;;;;;;4950421;28;20073;-85
2022/05/10 09:23:57;;;;;;;3.97;3.03;;;29.00;57.00;;;;;;4967728;28;20029;-85
2022/05/10 09:26:24;;;;;;;5.40;3.25;;;29.20;56.20;;;;;;4968070;28;20429;-84
2022/05/10 09:29:16;;;;;;;3.78;3.45;;;29.10;55.90;;;;;;4957002;28;20077;-84
2022/05/10 09:37:33;;;;;;;4.70;4.00;;;29.70;56.00;;;;;;4994853;28;20063;-82
2022/05/10 09:40:18;;;;;;;4.63;3.15;;;29.90;54.20;;;;;;4976717;28;20030;-81
2022/05/10 09:42:46;;;;;;;6.03;3.78;;;30.10;53.90;;;;;;4990683;28;20078;-80
2022/05/10 09:45:36;;;;;;;7.68;3.75;;;30.00;54.20;;;;;;4976548;28;20084;-80
2022/05/10 09:48:07;;;;;;;9.82;3.63;;;30.40;54.40;;;;;;4988248;28;20497;-79
2022/05/10 09:50:34;;;;;;;4.72;3.50;;;30.30;52.90;;;;;;5003463;28;20038;-79
2022/05/10 09:53:14;;;;;;;7.28;4.00;;;30.00;53.20;;;;;;4988213;28;20104;-78
2022/05/10 09:55:58;;;;;;;6.72;3.15;;;30.10;52.80;;;;;;4974802;28;20026;-78
2022/05/10 09:58:42;;;;;;;6.65;3.97;;;30.10;52.30;;;;;;4988009;28;20034;-78
2022/05/10 10:01:11;;;;;;;4.90;3.28;;;30.30;52.30;;;;;;4973169;28;20049;-77
2022/05/10 10:03:41;;;;;;;4.38;3.55;;;30.00;52.50;;;;;;4952446;28;20035;-76
2022/05/10 10:06:19;;;;;;;5.88;3.65;;;30.50;54.40;;;;;;4967962;28;20018;-77
2022/05/10 10:08:50;;;;;;;8.10;3.90;;;30.80;52.90;;;;;;5001405;28;20033;-77
2022/05/10 10:11:26;;;;;;;6.28;3.40;;;30.60;52.20;;;;;;4981294;28;20064;-76
2022/05/10 10:13:55;;;;;;;;;;;30.70;51.40;;;;;;4955309;28;20493;-77
2022/05/10 10:16:26;;;;;;;6.32;3.45;;;30.40;51.50;;;;;;4986719;28;19920;-77
2022/05/10 10:18:58;;;;;;;6.93;3.60;;;31.20;51.90;;;;;;4967420;28;20084;-77
2022/05/10 10:21:32;;;;;;;4.72;3.78;;;31.80;55.00;;;;;;4969089;28;20065;-77
2022/05/10 10:23:58;;;;;;;3.58;3.28;;;31.70;52.30;;;;;;4974915;28;20029;-76
2022/05/10 10:26:39;;;;;;;6.80;3.42;;;32.10;50.30;;;;;;4985203;28;20509;-76
2022/05/10 10:29:22;;;;;;;8.30;3.83;;;32.40;49.60;;;;;;4990610;28;20029;-76
2022/05/10 10:31:55;;;;;;;4.15;3.80;;;32.50;50.30;;;;;;4968947;28;20054;-77
2022/05/10 10:34:27;;;;;;;4.90;3.42;;;31.90;50.00;;;;;;4972087;28;20115;-78
2022/05/10 10:36:55;;;;;;;4.80;3.47;;;32.10;51.40;;;;;;4988137;28;20430;-77
2022/05/10 10:39:32;;;;;;;4.82;3.30;;;31.50;48.80;;;;;;4973091;28;20030;-77
2022/05/10 10:42:14;;;;;;;6.82;4.28;;;31.70;50.80;;;;;;4950763;28;20034;-77
2022/05/10 10:44:42;;;;;;;5.50;4.07;;;31.50;49.60;;;;;;4986888;28;20109;-76
2022/05/10 10:47:46;;;;;;;5.05;3.45;;;32.60;50.10;;;;;;4987794;28;20486;-76
2022/05/10 10:50:14;;;;;;;4.05;3.08;;;33.00;49.60;;;;;;5000561;28;20489;-77
2022/05/10 10:52:40;;;;;;;4.30;3.40;;;32.00;48.70;;;;;;4987217;28;20057;-77
2022/05/10 10:55:06;;;;;;;4.05;2.90;;;32.50;50.50;;;;;;4971294;28;20144;-76
2022/05/10 10:57:47;;;;;;;3.05;2.70;;;32.70;48.20;;;;;;4990257;28;20064;-77
2022/05/10 11:00:14;;;;;;;5.53;2.97;;;31.80;46.40;;;;;;4953561;28;20393;-77
2022/05/10 11:02:58;;;;;;;3.03;2.72;;;31.90;47.00;;;;;;4972545;28;20117;-76
2022/05/10 11:05:47;;;;;;;6.95;4.53;;;31.60;45.70;;;;;;4969392;28;20045;-76
2022/05/10 11:08:44;;;;;;;5.03;2.95;;;31.10;46.20;;;;;;4956128;28;20049;-76
2022/05/10 11:11:29;;;;;;;3.33;2.75;;;30.80;47.70;;;;;;4969671;28;20227;-76
2022/05/10 11:14:06;;;;;;;4.15;2.70;;;31.00;48.50;;;;;;4985741;28;20066;-76
2022/05/10 11:16:44;;;;;;;6.47;2.78;;;31.70;48.10;;;;;;4985066;28;20030;-76
2022/05/10 11:19:10;;;;;;;3.67;2.80;;;32.00;46.80;;;;;;4985510;28;20141;-76
2022/05/10 11:21:45;;;;;;;6.20;2.67;;;32.00;47.00;;;;;;5003948;28;20607;-77
2022/05/10 11:24:49;;;;;;;3.00;2.65;;;32.00;47.20;;;;;;4977589;28;20034;-76
2022/05/10 11:27:27;;;;;;;3.13;2.80;;;31.50;47.10;;;;;;4962828;28;20033;-76
2022/05/10 11:30:08;;;;;;;4.20;2.53;;;31.40;45.20;;;;;;4987172;28;20064;-76
2022/05/10 11:33:04;;;;;;;7.15;2.63;;;31.20;45.20;;;;;;4988225;28;20034;-76
2022/05/10 11:35:56;;;;;;;8.32;2.88;;;31.10;46.40;;;;;;4987216;28;20056;-77
2022/05/10 11:38:37;;;;;;;3.17;2.60;;;31.40;46.60;;;;;;4986634;28;20419;-77
2022/05/10 11:41:07;;;;;;;5.07;2.92;;;31.40;45.30;;;;;;4973876;28;20530;-76
2022/05/10 11:44:01;;;;;;;4.10;2.60;;;31.40;45.30;;;;;;4982065;28;20038;-77
2022/05/10 11:46:51;;;;;;;5.22;2.80;;;31.20;45.30;;;;;;4986640;28;20026;-76
2022/05/10 11:49:41;;;;;;;2.75;1.92;;;31.50;45.80;;;;;;4988787;28;20494;-76
2022/05/10 11:52:17;;;;;;;3.65;3.05;;;31.40;44.90;;;;;;5000942;28;20030;-75
2022/05/10 11:55:07;;;;;;;6.18;2.53;;;31.40;46.10;;;;;;4987546;28;20057;-76
2022/05/10 11:57:33;;;;;;;3.90;3.17;;;31.50;45.60;;;;;;4988931;28;20558;-76
2022/05/10 12:00:26;;;;;;;3.00;2.72;;;31.30;46.90;;;;;;4987446;28;20108;-76
2022/05/10 12:02:55;;;;;;;4.82;2.85;;;31.40;45.00;;;;;;5001276;28;20033;-76
2022/05/10 12:05:34;;;;;;;3.15;2.83;;;31.50;45.20;;;;;;4971248;28;20034;-77
2022/05/10 12:08:01;;;;;;;3.22;2.45;;;31.60;45.80;;;;;;4984152;28;20053;-76
2022/05/10 12:10:28;;;;;;;8.52;2.88;;;31.50;45.00;;;;;;4983960;28;20367;-76
2022/05/10 12:12:59;;;;;;;3.80;2.60;;;31.80;45.30;;;;;;4988645;28;20122;-77
2022/05/10 12:21:51;;;;;;;2.92;2.70;;;31.90;44.40;;;;;;4999841;28;20037;-76
2022/05/10 12:24:19;;;;;;;3.53;3.17;;;31.80;44.40;;;;;;4981331;28;20026;-76
2022/05/10 12:26:47;;;;;;;7.13;3.75;;;32.10;43.70;;;;;;4980457;28;20030;-77
2022/05/10 12:29:34;;;;;;;3.65;2.10;;;32.10;44.10;;;;;;4968590;28;20238;-76
2022/05/10 12:32:06;;;;;;;4.32;2.38;;;32.20;43.40;;;;;;4964992;28;20378;-76
2022/05/10 12:34:49;;;;;;;3.78;2.60;;;32.50;43.50;;;;;;4998641;28;20030;-76
2022/05/10 12:37:26;;;;;;;5.10;2.80;;;32.40;43.30;;;;;;4985494;28;20257;-76
2022/05/10 12:40:31;;;;;;;7.00;4.10;;;32.20;42.90;;;;;;5001109;28;20033;-76
2022/05/10 12:43:34;;;;;;;5.70;3.13;;;32.90;43.50;;;;;;4981524;28;20121;-77
2022/05/10 12:46:08;;;;;;;4.95;3.30;;;33.10;43.20;;;;;;4988373;28;20447;-76
2022/05/10 12:48:55;;;;;;;4.18;3.20;;;33.20;42.80;;;;;;5000761;28;20035;-76
2022/05/10 12:51:42;;;;;;;3.47;2.90;;;33.20;42.30;;;;;;4971858;28;20068;-77
2022/05/10 12:54:35;;;;;;;6.38;2.90;;;33.10;41.90;;;;;;4985864;28;20088;-76
2022/05/10 12:57:10;;;;;;;4.32;3.08;;;33.30;42.80;;;;;;4977312;28;20073;-76
2022/05/10 12:59:48;;;;;;;3.25;2.72;;;33.20;42.30;;;;;;4984250;28;20034;-76
2022/05/10 13:02:13;;;;;;;4.00;3.25;;;33.10;42.10;;;;;;4982159;28;20077;-77
2022/05/10 13:04:42;;;;;;;7.93;2.95;;;33.10;42.20;;;;;;4987365;28;20661;-76
2022/05/10 13:07:08;;;;;;;3.40;2.78;;;33.00;41.60;;;;;;4971784;28;20449;-76
2022/05/10 13:09:59;;;;;;;4.90;3.17;;;33.10;42.10;;;;;;5003974;28;20041;-76
2022/05/10 13:12:29;;;;;;;5.25;2.97;;;33.00;43.30;;;;;;4989424;28;20559;-75
2022/05/10 13:15:00;;;;;;;5.47;3.47;;;33.10;42.70;;;;;;4974156;28;20184;-76
2022/05/10 13:17:29;;;;;;;4.75;3.03;;;32.40;43.10;;;;;;4972252;28;20434;-75
2022/05/10 13:19:55;;;;;;;7.22;3.17;;;32.60;41.90;;;;;;4985296;28;20117;-76
2022/05/10 13:22:21;;;;;;;6.00;3.53;;;32.10;42.20;;;;;;4954832;28;20068;-76
2022/05/10 13:24:50;;;;;;;6.82;2.90;;;32.00;42.70;;;;;;4969905;28;20038;-76
2022/05/10 13:27:28;;;;;;;6.80;3.05;;;31.90;42.40;;;;;;4968063;28;20254;-76